Time;durP1;ratioP1;P1;durP2;ratioP2;P2;SDS_P1;SDS_P2;PMS_P1;PMS_P2;Temp;Humidity;BMP_temperature;BMP_pressure;BME280_temperature;BME280_humidity;BME280_pressure;Samples;Min_cycle;Max_cycle;Signal;HPM_P1;HPM_P2
2021/09/12 00:00:30;;;;;;;19.27;17.07;;;18.70;99.90;;;;;;5076973;28;20174;-73
2021/09/12 00:02:55;;;;;;;22.83;19.17;;;18.70;99.90;;;;;;5078970;28;20432;-72
2021/09/12 00:05:21;;;;;;;19.57;17.47;;;18.70;99.90;;;;;;5072545;28;20401;-73
2021/09/12 00:07:47;;;;;;;19.40;15.93;;;18.60;99.90;;;;;;5056391;28;20175;-73
2021/09/12 00:10:14;;;;;;;20.70;16.67;;;18.60;99.90;;;;;;5043875;28;20194;-72
2021/09/12 00:12:40;;;;;;;23.17;17.40;;;18.70;99.90;;;;;;5040776;28;20203;-73
2021/09/12 00:15:08;;;;;;;17.77;15.27;;;18.60;99.90;;;;;;5037876;28;20751;-73
2021/09/12 00:17:34;;;;;;;17.63;15.73;;;18.70;99.90;;;;;;5038011;28;20175;-73
2021/09/12 00:19:59;;;;;;;17.73;15.70;;;18.70;99.90;;;;;;5037427;28;20416;-73
2021/09/12 00:22:25;;;;;;;20.63;15.23;;;18.70;99.90;;;;;;5037425;28;20179;-73
2021/09/12 00:24:51;;;;;;;21.10;15.93;;;18.70;99.90;;;;;;5037929;28;20225;-72
2021/09/12 00:27:16;;;;;;;20.57;17.27;;;18.70;99.90;;;;;;5037105;28;20186;-73
2021/09/12 00:29:42;;;;;;;18.50;16.03;;;18.60;99.90;;;;;;5036432;28;20177;-72
2021/09/12 00:32:08;;;;;;;19.77;15.83;;;18.60;99.90;;;;;;5035373;28;20215;-72
2021/09/12 00:34:33;;;;;;;19.97;16.97;;;18.50;99.90;;;;;;5036876;28;20632;-72
2021/09/12 00:36:59;;;;;;;21.10;15.47;;;18.50;99.90;;;;;;5036504;28;20206;-73
2021/09/12 00:39:24;;;;;;;19.03;16.93;;;18.60;99.90;;;;;;5036345;28;20178;-72
2021/09/12 00:41:50;;;;;;;17.60;15.63;;;18.60;99.90;;;;;;5035036;28;20202;-72
2021/09/12 00:44:16;;;;;;;19.10;15.50;;;18.60;99.90;;;;;;5037509;28;20647;-73
2021/09/12 00:46:46;;;;;;;19.57;15.80;;;18.60;99.90;;;;;;5036656;28;20182;-72
2021/09/12 00:49:13;;;;;;;19.70;15.40;;;18.60;99.90;;;;;;5036002;28;20402;-73
2021/09/12 00:51:39;;;;;;;19.93;15.50;;;18.60;99.90;;;;;;5035581;28;20461;-73
2021/09/12 00:54:07;;;;;;;17.40;14.50;;;18.60;99.90;;;;;;5035569;28;20421;-72
2021/09/12 00:56:36;;;;;;;18.10;15.80;;;18.60;99.90;;;;;;5035999;28;20179;-72
2021/09/12 00:59:01;;;;;;;17.50;15.30;;;18.60;99.90;;;;;;5054763;28;20504;-72
2021/09/12 01:01:28;;;;;;;17.33;15.40;;;18.60;99.90;;;;;;5056172;28;20523;-72
2021/09/12 01:03:53;;;;;;;21.10;15.83;;;18.50;99.90;;;;;;5056219;28;20176;-73
2021/09/12 01:06:20;;;;;;;20.33;14.67;;;18.50;99.90;;;;;;5055631;28;20491;-73
2021/09/12 01:08:45;;;;;;;17.17;14.00;;;18.50;99.90;;;;;;5055549;28;20245;-72
2021/09/12 01:11:11;;;;;;;17.30;14.70;;;18.50;99.90;;;;;;5054469;28;20909;-72
2021/09/12 01:13:38;;;;;;;20.33;16.27;;;18.60;99.90;;;;;;5044061;28;20209;-72
2021/09/12 01:16:18;;;;;;;26.03;16.57;;;18.60;99.90;;;;;;5035919;28;20195;-72
2021/09/12 01:18:45;;;;;;;17.73;15.00;;;18.50;99.90;;;;;;5035838;28;20394;-73
2021/09/12 01:21:15;;;;;;;21.10;17.20;;;18.50;99.90;;;;;;5035866;28;20438;-72
2021/09/12 01:23:41;;;;;;;24.93;17.00;;;18.50;99.90;;;;;;5035628;28;20879;-73
2021/09/12 01:26:08;;;;;;;22.57;16.93;;;18.50;99.90;;;;;;5035259;28;20767;-73
2021/09/12 01:28:34;;;;;;;19.07;15.27;;;18.50;99.90;;;;;;5033853;28;20438;-72
2021/09/12 01:31:00;;;;;;;19.10;16.13;;;18.50;99.90;;;;;;5046329;28;20487;-73
2021/09/12 01:33:27;;;;;;;20.57;16.80;;;18.50;99.90;;;;;;5055750;28;20452;-73
2021/09/12 01:35:53;;;;;;;20.70;16.40;;;18.50;99.90;;;;;;5055754;28;20409;-72
2021/09/12 01:38:18;;;;;;;23.20;15.80;;;18.50;99.90;;;;;;5055555;28;20582;-72
2021/09/12 01:40:45;;;;;;;19.33;15.17;;;18.60;99.90;;;;;;5055692;28;20921;-73
2021/09/12 01:43:10;;;;;;;20.73;16.07;;;18.60;99.90;;;;;;5055936;28;20199;-72
2021/09/12 01:45:36;;;;;;;15.73;14.07;;;18.70;99.90;;;;;;5055440;28;20496;-73
2021/09/12 01:48:02;;;;;;;19.20;15.90;;;18.70;99.90;;;;;;5044724;28;20233;-73
2021/09/12 01:50:28;;;;;;;21.77;15.77;;;18.70;99.90;;;;;;5035212;28;20225;-72
2021/09/12 01:52:54;;;;;;;23.50;16.30;;;18.70;99.90;;;;;;5035048;28;20493;-72
2021/09/12 01:55:20;;;;;;;20.27;15.27;;;18.70;99.90;;;;;;5035497;28;20475;-73
2021/09/12 01:57:46;;;;;;;18.07;15.00;;;18.70;99.90;;;;;;5035077;28;20224;-73
2021/09/12 02:00:12;;;;;;;20.40;15.33;;;18.70;99.90;;;;;;5034767;28;20421;-73
2021/09/12 02:02:38;;;;;;;24.10;16.70;;;18.70;99.90;;;;;;5035214;28;20171;-72
2021/09/12 02:05:04;;;;;;;24.17;18.33;;;18.60;99.90;;;;;;5036088;28;20452;-72
2021/09/12 02:07:29;;;;;;;18.47;16.43;;;18.40;99.90;;;;;;5034991;28;20973;-72
2021/09/12 02:09:55;;;;;;;21.63;17.50;;;18.40;99.90;;;;;;5035695;28;20581;-72
2021/09/12 02:12:21;;;;;;;19.33;15.77;;;18.50;99.90;;;;;;5037076;28;20195;-72
2021/09/12 02:14:46;;;;;;;21.27;17.10;;;18.50;99.90;;;;;;5038010;28;20225;-71
2021/09/12 02:17:12;;;;;;;22.97;17.93;;;18.50;99.90;;;;;;5034190;28;20186;-71
2021/09/12 02:19:37;;;;;;;23.60;18.70;;;18.40;99.90;;;;;;5034621;28;20914;-71
2021/09/12 02:22:03;;;;;;;22.80;17.07;;;18.40;99.90;;;;;;5034842;28;20452;-71
2021/09/12 02:24:29;;;;;;;20.60;17.43;;;18.30;99.90;;;;;;5041764;28;20193;-71
2021/09/12 02:26:54;;;;;;;26.93;18.40;;;18.30;99.90;;;;;;5054791;28;20178;-71
2021/09/12 02:29:20;;;;;;;27.07;18.17;;;18.30;99.90;;;;;;5054284;28;20178;-72
2021/09/12 02:31:45;;;;;;;21.73;16.20;;;18.30;99.90;;;;;;5054212;28;20197;-73
2021/09/12 02:34:11;;;;;;;20.70;16.70;;;18.40;99.90;;;;;;5054217;28;20206;-72
2021/09/12 02:36:37;;;;;;;20.83;16.33;;;18.40;99.90;;;;;;5054766;28;20170;-72
2021/09/12 02:39:03;;;;;;;25.43;19.27;;;18.40;99.90;;;;;;5054214;28;20250;-72
2021/09/12 02:41:28;;;;;;;23.00;18.50;;;18.40;99.90;;;;;;5038221;28;20203;-72
2021/09/12 02:43:54;;;;;;;23.37;17.70;;;18.30;99.90;;;;;;5046704;28;20546;-72
2021/09/12 02:46:19;;;;;;;21.10;17.07;;;18.30;99.90;;;;;;5054184;28;20181;-72
2021/09/12 02:48:45;;;;;;;21.80;16.53;;;18.30;99.90;;;;;;5053925;28;20186;-72
2021/09/12 02:51:10;;;;;;;24.07;17.13;;;18.30;99.90;;;;;;5054116;28;20297;-72
2021/09/12 02:53:36;;;;;;;24.13;17.33;;;18.30;99.90;;;;;;5054035;28;20205;-73
2021/09/12 02:56:01;;;;;;;22.43;15.90;;;18.20;99.90;;;;;;5054266;28;20182;-72
2021/09/12 02:58:27;;;;;;;21.10;15.60;;;18.20;99.90;;;;;;5047124;28;20171;-72
2021/09/12 03:00:52;;;;;;;20.63;15.47;;;18.20;99.90;;;;;;5033968;28;20244;-73
2021/09/12 03:03:18;;;;;;;22.23;16.87;;;18.30;99.90;;;;;;5035548;28;20175;-72
2021/09/12 03:05:43;;;;;;;21.63;16.97;;;18.30;99.90;;;;;;5035725;28;20659;-72
2021/09/12 03:08:09;;;;;;;23.50;17.37;;;18.30;99.90;;;;;;5035857;28;20177;-72
2021/09/12 03:10:34;;;;;;;20.33;16.93;;;18.20;99.90;;;;;;5035488;28;20187;-72
2021/09/12 03:13:00;;;;;;;22.50;18.03;;;18.10;99.90;;;;;;5053350;28;20203;-72
2021/09/12 03:15:25;;;;;;;22.70;17.20;;;18.10;99.90;;;;;;5051162;28;20261;-72
2021/09/12 03:17:51;;;;;;;24.03;17.57;;;18.20;99.90;;;;;;5043635;28;20159;-72
2021/09/12 03:20:17;;;;;;;26.07;17.00;;;18.20;99.90;;;;;;5056584;28;20191;-72
2021/09/12 03:22:42;;;;;;;25.80;18.47;;;18.20;99.90;;;;;;5056737;28;20159;-72
2021/09/12 03:25:08;;;;;;;25.27;18.63;;;18.30;99.90;;;;;;5037258;28;20186;-72
2021/09/12 03:27:34;;;;;;;21.27;16.87;;;18.30;99.90;;;;;;5037052;28;20174;-72
2021/09/12 03:29:59;;;;;;;22.57;16.33;;;18.30;99.90;;;;;;5033867;28;20850;-72
2021/09/12 03:32:25;;;;;;;21.30;16.17;;;18.30;99.90;;;;;;5035464;28;20195;-72
2021/09/12 03:34:50;;;;;;;24.57;17.33;;;18.30;99.90;;;;;;5035669;28;20228;-73
2021/09/12 03:37:16;;;;;;;21.97;17.83;;;18.40;99.90;;;;;;5033524;28;20597;-72
2021/09/12 03:39:41;;;;;;;23.70;18.10;;;18.30;99.90;;;;;;5033144;28;20636;-72
2021/09/12 03:42:07;;;;;;;22.60;18.17;;;18.30;99.90;;;;;;5033657;28;20232;-72
2021/09/12 03:44:33;;;;;;;24.53;18.83;;;18.20;99.90;;;;;;5034077;28;20620;-72
2021/09/12 03:46:58;;;;;;;24.17;19.60;;;18.20;99.90;;;;;;5035869;28;20202;-72
2021/09/12 03:49:24;;;;;;;24.42;19.00;;;18.20;99.90;;;;;;5041540;28;20473;-72
2021/09/12 03:51:49;;;;;;;22.67;17.93;;;18.20;99.90;;;;;;5034279;28;20625;-72
2021/09/12 03:54:15;;;;;;;25.57;19.20;;;18.30;99.90;;;;;;5034010;28;20171;-72
2021/09/12 03:56:40;;;;;;;23.90;18.40;;;18.30;99.90;;;;;;5032299;28;20231;-73
2021/09/12 03:59:06;;;;;;;24.63;19.90;;;18.20;99.90;;;;;;5032913;28;20433;-72
2021/09/12 04:01:31;;;;;;;26.57;20.10;;;18.20;99.90;;;;;;5033575;28;20191;-72
2021/09/12 04:03:57;;;;;;;24.80;19.23;;;18.20;99.90;;;;;;5033649;28;20175;-72
2021/09/12 04:06:22;;;;;;;28.70;19.70;;;18.20;99.90;;;;;;5033683;28;20186;-73
2021/09/12 04:08:48;;;;;;;25.00;19.80;;;18.30;99.90;;;;;;5034504;28;20199;-72
2021/09/12 04:11:13;;;;;;;29.50;19.60;;;18.20;99.90;;;;;;5033111;28;20289;-72
2021/09/12 04:13:39;;;;;;;23.73;19.20;;;18.20;99.90;;;;;;5032832;28;20238;-73
2021/09/12 04:16:05;;;;;;;28.57;19.30;;;18.00;99.90;;;;;;5033134;28;20171;-72
2021/09/12 04:18:30;;;;;;;24.80;18.10;;;18.00;99.90;;;;;;5043297;28;20640;-72
2021/09/12 04:20:56;;;;;;;23.80;18.53;;;18.00;99.90;;;;;;5051874;28;20198;-72
2021/09/12 04:23:21;;;;;;;24.60;19.70;;;18.00;99.90;;;;;;5051834;28;20558;-72
2021/09/12 04:25:47;;;;;;;21.50;17.97;;;18.10;99.90;;;;;;5053583;28;20174;-72
2021/09/12 04:28:12;;;;;;;26.83;20.37;;;18.10;99.90;;;;;;5055053;28;20258;-72
2021/09/12 04:30:38;;;;;;;26.87;19.17;;;18.10;99.90;;;;;;5055011;28;20214;-73
2021/09/12 04:33:04;;;;;;;30.03;20.07;;;18.20;99.90;;;;;;5056564;28;20216;-72
2021/09/12 04:35:29;;;;;;;28.10;20.27;;;18.20;99.90;;;;;;5056174;28;20174;-72
2021/09/12 04:37:55;;;;;;;28.53;21.20;;;18.20;99.90;;;;;;5056420;28;20210;-73
2021/09/12 04:40:20;;;;;;;26.87;23.10;;;18.20;99.90;;;;;;5053565;28;20431;-72
2021/09/12 04:42:46;;;;;;;24.10;19.70;;;18.20;99.90;;;;;;5051283;28;20170;-72
2021/09/12 04:45:12;;;;;;;24.73;20.70;;;18.10;99.90;;;;;;5036343;28;20537;-73
2021/09/12 04:47:37;;;;;;;25.37;20.00;;;18.10;99.90;;;;;;5036383;28;20175;-73
2021/09/12 04:50:04;;;;;;;24.98;22.17;;;18.00;99.90;;;;;;5033642;28;20432;-72
2021/09/12 04:52:30;;;;;;;25.20;20.53;;;18.10;99.90;;;;;;5036555;28;20324;-72
2021/09/12 04:54:55;;;;;;;23.10;19.50;;;18.10;99.90;;;;;;5037760;28;20457;-72
2021/09/12 04:57:21;;;;;;;20.77;18.27;;;18.10;99.90;;;;;;5035854;28;20187;-72
2021/09/12 04:59:46;;;;;;;22.67;18.23;;;18.00;99.90;;;;;;5035820;28;20641;-72
2021/09/12 05:02:12;;;;;;;23.77;18.37;;;18.00;99.90;;;;;;5036367;28;20191;-72
2021/09/12 05:04:37;;;;;;;23.90;17.23;;;18.00;99.90;;;;;;5037310;28;20266;-72
2021/09/12 05:07:03;;;;;;;21.20;17.13;;;18.00;99.90;;;;;;5035969;28;20257;-72
2021/09/12 05:09:28;;;;;;;19.30;16.10;;;18.10;99.90;;;;;;5034826;28;20662;-73
2021/09/12 05:11:54;;;;;;;19.57;15.50;;;18.10;99.90;;;;;;5035603;28;20229;-73
2021/09/12 05:14:21;;;;;;;19.50;15.67;;;18.00;99.90;;;;;;5037303;28;20171;-72
2021/09/12 05:16:47;;;;;;;16.97;14.90;;;18.00;99.90;;;;;;5056164;28;20170;-72
2021/09/12 05:19:12;;;;;;;20.43;14.97;;;17.90;99.90;;;;;;5055659;28;20413;-72
2021/09/12 05:21:38;;;;;;;18.73;14.63;;;17.90;99.90;;;;;;5055461;28;20194;-72
2021/09/12 05:24:04;;;;;;;17.30;14.30;;;17.90;99.90;;;;;;5055709;28;20178;-72
2021/09/12 05:26:29;;;;;;;17.87;14.13;;;18.00;99.90;;;;;;5054269;28;20672;-71
2021/09/12 05:28:55;;;;;;;16.03;13.40;;;17.90;99.90;;;;;;5055413;28;20185;-71
2021/09/12 05:31:20;;;;;;;15.00;12.90;;;17.90;99.90;;;;;;5054981;28;20197;-71
2021/09/12 05:33:46;;;;;;;14.40;12.00;;;18.00;99.90;;;;;;5054573;28;20680;-71
2021/09/12 05:36:11;;;;;;;14.53;13.03;;;17.90;99.90;;;;;;5053653;28;20658;-71
2021/09/12 05:38:37;;;;;;;16.27;12.13;;;17.90;99.90;;;;;;5054871;28;20651;-71
2021/09/12 05:41:02;;;;;;;17.47;11.60;;;17.90;99.90;;;;;;5054155;28;20574;-71
2021/09/12 05:43:28;;;;;;;14.83;11.70;;;17.90;99.90;;;;;;5066174;28;20185;-71
2021/09/12 05:45:54;;;;;;;13.97;12.00;;;17.90;99.90;;;;;;5057121;28;20182;-72
2021/09/12 05:48:19;;;;;;;12.60;10.30;;;17.90;99.90;;;;;;5052586;28;20184;-71
2021/09/12 05:50:45;;;;;;;14.60;11.37;;;17.80;99.90;;;;;;5040702;28;20237;-72
2021/09/12 05:53:11;;;;;;;16.00;10.87;;;17.80;99.90;;;;;;5045489;28;20193;-72
2021/09/12 05:55:37;;;;;;;11.37;9.87;;;17.70;99.90;;;;;;5044739;28;20203;-72
2021/09/12 05:58:03;;;;;;;11.73;9.77;;;17.80;99.90;;;;;;5039384;28;20536;-72
2021/09/12 06:00:29;;;;;;;16.77;9.83;;;17.70;99.90;;;;;;5039877;28;20472;-72
2021/09/12 06:02:55;;;;;;;10.13;9.07;;;17.70;99.90;;;;;;5044632;28;20433;-72
2021/09/12 06:05:20;;;;;;;12.10;9.17;;;17.70;99.90;;;;;;5042505;28;20448;-72
2021/09/12 06:07:46;;;;;;;10.60;8.33;;;17.70;99.90;;;;;;5041803;28;20189;-72
2021/09/12 06:10:11;;;;;;;10.70;7.87;;;17.80;99.90;;;;;;5046169;28;20647;-71
2021/09/12 06:12:37;;;;;;;10.37;7.73;;;17.90;99.90;;;;;;5042001;28;20198;-71
2021/09/12 06:15:03;;;;;;;9.53;7.40;;;18.00;99.90;;;;;;5046223;28;20515;-71
2021/09/12 06:17:29;;;;;;;12.03;6.40;;;18.10;99.90;;;;;;5042123;28;20265;-71
2021/09/12 06:19:55;;;;;;;8.57;6.70;;;18.10;99.90;;;;;;5047845;28;20855;-72
2021/09/12 06:22:20;;;;;;;7.00;6.30;;;18.20;99.90;;;;;;5046002;28;20179;-72
2021/09/12 06:24:46;;;;;;;7.73;6.63;;;18.20;99.90;;;;;;5050443;28;20186;-72
2021/09/12 06:27:12;;;;;;;8.87;6.33;;;18.30;99.90;;;;;;5049054;28;20197;-72
2021/09/12 06:29:38;;;;;;;6.30;5.70;;;18.30;99.90;;;;;;5061612;28;20214;-73
2021/09/12 06:32:04;;;;;;;9.63;6.17;;;18.40;99.90;;;;;;5062553;28;20532;-72
2021/09/12 06:34:29;;;;;;;7.10;5.10;;;18.30;99.90;;;;;;5058194;28;20198;-71
2021/09/12 06:36:56;;;;;;;6.57;5.03;;;18.30;99.90;;;;;;5057635;28;20433;-73
2021/09/12 06:39:23;;;;;;;7.40;5.43;;;18.30;99.90;;;;;;5060929;28;20206;-76
2021/09/12 06:41:49;;;;;;;8.23;5.10;;;18.30;99.90;;;;;;5059363;28;20590;-72
2021/09/12 06:44:15;;;;;;;7.83;4.73;;;18.40;99.90;;;;;;5038104;28;20427;-72
2021/09/12 06:46:41;;;;;;;5.80;5.23;;;18.40;99.90;;;;;;5034677;28;20487;-73
2021/09/12 06:49:07;;;;;;;5.60;4.70;;;18.40;99.90;;;;;;5038107;28;20413;-73
2021/09/12 06:51:32;;;;;;;5.40;4.90;;;18.50;99.90;;;;;;5038952;28;20539;-73
2021/09/12 06:53:58;;;;;;;5.87;5.27;;;18.50;99.90;;;;;;5037532;28;20254;-74
2021/09/12 06:56:23;;;;;;;7.47;5.30;;;18.40;99.90;;;;;;5030964;28;20211;-74
2021/09/12 06:58:49;;;;;;;10.67;5.70;;;18.40;99.90;;;;;;5033414;28;20210;-73
2021/09/12 07:01:16;;;;;;;8.50;5.50;;;18.40;99.90;;;;;;5031892;28;20241;-73
2021/09/12 07:03:41;;;;;;;8.07;5.70;;;18.50;99.90;;;;;;5032181;28;20198;-73
2021/09/12 07:06:07;;;;;;;10.33;5.83;;;18.50;99.90;;;;;;5034289;28;20536;-73
2021/09/12 07:08:32;;;;;;;8.40;5.67;;;18.60;99.90;;;;;;5030458;28;20347;-72
2021/09/12 07:10:58;;;;;;;6.40;5.40;;;18.70;99.90;;;;;;5031280;28;20313;-73
2021/09/12 07:13:23;;;;;;;7.53;6.07;;;18.60;99.90;;;;;;5041576;28;20279;-73
2021/09/12 07:15:49;;;;;;;6.87;6.17;;;18.60;99.90;;;;;;5052121;28;20206;-71
2021/09/12 07:18:14;;;;;;;7.67;6.00;;;18.70;99.90;;;;;;5051978;28;20194;-73
2021/09/12 07:20:40;;;;;;;6.37;5.73;;;18.60;99.90;;;;;;5050857;28;20675;-73
2021/09/12 07:23:06;;;;;;;9.57;6.90;;;18.50;99.90;;;;;;5050513;28;20234;-73
2021/09/12 07:25:32;;;;;;;8.00;6.90;;;18.60;99.90;;;;;;5043664;28;20227;-73
2021/09/12 07:27:57;;;;;;;7.50;6.80;;;18.50;99.90;;;;;;5035217;28;20500;-73
2021/09/12 07:30:23;;;;;;;9.03;6.80;;;18.50;99.90;;;;;;5033079;28;20234;-74
2021/09/12 07:32:48;;;;;;;8.20;6.60;;;18.50;99.90;;;;;;5040180;28;20206;-71
2021/09/12 07:35:14;;;;;;;11.53;8.10;;;18.50;99.90;;;;;;5033015;28;20294;-73
2021/09/12 07:37:40;;;;;;;9.30;7.47;;;18.40;99.90;;;;;;5031338;28;20199;-72
2021/09/12 07:40:07;;;;;;;10.60;8.17;;;18.40;99.90;;;;;;5037792;28;20210;-73
2021/09/12 07:42:32;;;;;;;8.73;7.03;;;18.40;99.90;;;;;;5046273;28;20204;-72
2021/09/12 07:44:58;;;;;;;7.90;6.93;;;18.50;99.90;;;;;;5041595;28;20444;-72
2021/09/12 07:47:24;;;;;;;11.63;7.80;;;18.50;99.90;;;;;;5030327;28;20268;-72
2021/09/12 07:49:49;;;;;;;10.07;6.97;;;18.50;99.90;;;;;;5034584;28;20449;-72
2021/09/12 07:52:15;;;;;;;12.70;7.50;;;18.50;99.90;;;;;;5039685;28;20558;-72
2021/09/12 07:54:41;;;;;;;8.80;7.33;;;18.50;99.90;;;;;;5030804;28;20226;-72
2021/09/12 07:57:06;;;;;;;9.37;6.60;;;18.50;99.90;;;;;;5036430;28;20211;-72
2021/09/12 07:59:32;;;;;;;11.10;6.10;;;18.40;99.90;;;;;;5037482;28;20202;-72
2021/09/12 08:01:57;;;;;;;7.93;6.20;;;18.50;99.90;;;;;;5033208;28;20322;-72
2021/09/12 08:04:23;;;;;;;9.60;7.33;;;18.50;99.90;;;;;;5035305;28;20223;-73
2021/09/12 08:06:49;;;;;;;7.13;6.43;;;18.50;99.90;;;;;;5047837;28;20211;-73
2021/09/12 08:09:15;;;;;;;7.90;6.30;;;18.50;99.90;;;;;;5044592;28;20228;-73
2021/09/12 08:11:41;;;;;;;6.83;6.07;;;18.50;99.90;;;;;;5053507;28;20538;-75
2021/09/12 08:14:07;;;;;;;7.10;6.40;;;18.50;99.90;;;;;;5054971;28;20249;-72
2021/09/12 08:16:32;;;;;;;8.00;5.80;;;18.50;99.90;;;;;;5052269;28;20487;-72
2021/09/12 08:18:58;;;;;;;7.27;6.03;;;18.60;99.90;;;;;;5055054;28;20474;-73
2021/09/12 08:21:23;;;;;;;7.00;5.93;;;18.60;99.90;;;;;;5053682;28;20248;-73
2021/09/12 08:23:49;;;;;;;7.67;6.40;;;18.70;99.90;;;;;;5054295;28;20244;-72
2021/09/12 08:26:15;;;;;;;10.57;6.20;;;18.80;99.90;;;;;;5047482;28;20198;-72
2021/09/12 08:28:41;;;;;;;8.00;6.33;;;18.80;99.90;;;;;;5049859;28;21031;-73
2021/09/12 08:31:06;;;;;;;6.70;6.00;;;18.80;99.90;;;;;;5051010;28;20233;-72
2021/09/12 08:33:32;;;;;;;8.10;5.27;;;18.80;99.90;;;;;;5047362;28;20232;-72
2021/09/12 08:35:57;;;;;;;9.17;5.80;;;18.60;99.90;;;;;;5031240;28;20195;-72
2021/09/12 08:38:23;;;;;;;7.03;6.43;;;18.50;99.90;;;;;;5031807;28;20213;-72
2021/09/12 08:40:57;;;;;;;7.80;5.40;;;18.40;99.90;;;;;;5043505;28;20214;-72
2021/09/12 08:43:23;;;;;;;6.90;6.17;;;18.50;99.90;;;;;;5048797;28;20210;-72
2021/09/12 08:45:49;;;;;;;7.20;6.10;;;18.60;99.90;;;;;;5050754;28;20455;-72
2021/09/12 08:48:15;;;;;;;8.40;5.40;;;18.70;99.90;;;;;;5052158;28;20452;-72
2021/09/12 08:50:41;;;;;;;7.73;5.50;;;18.70;99.90;;;;;;5047077;28;20280;-71
2021/09/12 08:53:06;;;;;;;6.03;5.20;;;18.80;99.90;;;;;;5045379;28;21225;-72
2021/09/12 08:55:32;;;;;;;7.20;5.70;;;19.00;99.90;;;;;;5047949;28;20602;-72
2021/09/12 08:57:59;;;;;;;7.33;5.43;;;19.10;99.90;;;;;;5039419;28;20982;-72
2021/09/12 09:00:25;;;;;;;8.20;5.80;;;19.30;99.90;;;;;;5046223;28;20280;-72
2021/09/12 09:03:02;;;;;;;6.67;5.60;;;19.30;99.90;;;;;;5048652;28;20456;-72
2021/09/12 09:05:37;;;;;;;7.30;6.00;;;19.40;99.90;;;;;;5052161;28;20467;-72
2021/09/12 09:08:14;;;;;;;6.30;5.60;;;19.50;99.90;;;;;;5054396;28;20476;-72
2021/09/12 09:10:40;;;;;;;6.67;5.27;;;19.40;99.90;;;;;;5051148;28;20460;-72
2021/09/12 09:13:29;;;;;;;7.40;5.80;;;19.40;99.90;;;;;;5054684;28;20448;-71
2021/09/12 09:15:55;;;;;;;6.00;5.20;;;19.50;99.90;;;;;;5053580;28;20181;-72
2021/09/12 09:18:32;;;;;;;8.23;5.40;;;19.60;99.90;;;;;;5055003;28;20417;-71
2021/09/12 09:20:58;;;;;;;7.87;5.07;;;19.60;99.90;;;;;;5054415;28;20434;-72
2021/09/12 09:23:23;;;;;;;5.03;4.53;;;19.60;99.90;;;;;;5054186;28;20554;-72
2021/09/12 09:25:52;;;;;;;5.50;4.30;;;19.60;99.90;;;;;;5053865;28;20454;-71
2021/09/12 09:28:19;;;;;;;9.80;5.57;;;19.70;99.90;;;;;;5055885;28;20252;-72
2021/09/12 09:30:48;;;;;;;5.00;4.40;;;19.80;99.90;;;;;;5054659;28;20435;-72
2021/09/12 09:33:26;;;;;;;5.33;4.83;;;19.90;99.90;;;;;;5055230;28;20452;-73
2021/09/12 09:36:06;;;;;;;6.20;4.53;;;20.00;99.90;;;;;;5040524;28;20420;-72
2021/09/12 09:38:34;;;;;;;5.90;4.70;;;20.10;99.90;;;;;;5053823;28;20474;-73
2021/09/12 09:41:06;;;;;;;4.73;4.20;;;20.20;99.90;;;;;;5054952;28;20232;-72
2021/09/12 09:43:52;;;;;;;5.23;4.47;;;20.30;99.90;;;;;;5054911;28;20423;-72
2021/09/12 09:46:30;;;;;;;6.10;4.80;;;20.30;99.90;;;;;;5054509;28;20421;-72
2021/09/12 09:48:58;;;;;;;4.57;4.17;;;20.30;99.90;;;;;;5073742;28;20431;-73
2021/09/12 09:51:24;;;;;;;6.90;4.77;;;20.20;99.90;;;;;;5073235;28;20436;-72
2021/09/12 09:53:50;;;;;;;6.07;5.57;;;20.30;99.90;;;;;;5068546;28;20445;-71
2021/09/12 09:56:17;;;;;;;6.63;4.93;;;20.10;99.90;;;;;;5062619;28;20420;-72
2021/09/12 09:58:43;;;;;;;5.90;5.37;;;20.10;99.90;;;;;;5071931;28;20428;-73
2021/09/12 10:01:10;;;;;;;7.13;5.10;;;20.10;99.90;;;;;;5070136;28;20436;-72
2021/09/12 10:03:37;;;;;;;7.37;5.27;;;20.10;99.90;;;;;;5054641;28;20481;-71
2021/09/12 10:06:03;;;;;;;5.83;5.23;;;20.20;99.90;;;;;;5054417;28;20417;-72
2021/09/12 10:08:28;;;;;;;6.60;5.00;;;20.20;99.90;;;;;;5053080;28;20432;-73
2021/09/12 10:10:54;;;;;;;5.07;4.57;;;20.20;99.90;;;;;;5050237;28;20279;-72
2021/09/12 10:13:22;;;;;;;5.43;4.90;;;20.30;99.90;;;;;;5053605;28;20205;-72
2021/09/12 10:15:53;;;;;;;6.37;4.40;;;20.40;99.90;;;;;;5054232;28;20412;-73
2021/09/12 10:18:27;;;;;;;6.37;4.20;;;20.40;99.90;;;;;;5051384;28;20539;-71
2021/09/12 10:20:54;;;;;;;6.73;4.57;;;20.50;99.90;;;;;;5038976;28;20481;-74
2021/09/12 10:23:20;;;;;;;5.13;4.20;;;20.60;99.90;;;;;;5052662;28;20452;-72
2021/09/12 10:25:48;;;;;;;5.57;4.63;;;20.60;99.90;;;;;;5055693;28;20421;-72
2021/09/12 10:28:34;;;;;;;4.93;4.07;;;20.60;99.90;;;;;;5046010;28;20223;-71
2021/09/12 10:31:20;;;;;;;7.60;4.60;;;20.70;99.90;;;;;;5054642;28;20460;-72
2021/09/12 10:34:06;;;;;;;6.10;4.67;;;20.80;99.90;;;;;;5051132;28;20823;-72
2021/09/12 10:36:31;;;;;;;4.43;3.80;;;20.80;99.90;;;;;;5046002;28;20419;-73
2021/09/12 10:39:20;;;;;;;6.43;4.23;;;20.90;99.90;;;;;;5049580;28;20755;-73
2021/09/12 10:42:11;;;;;;;4.90;4.03;;;20.70;99.90;;;;;;5039278;28;20214;-71
2021/09/12 10:44:37;;;;;;;7.13;4.50;;;20.60;99.90;;;;;;5049477;28;20424;-74
2021/09/12 10:47:07;;;;;;;4.93;3.60;;;20.60;99.90;;;;;;5069644;28;20935;-73
2021/09/12 10:49:33;;;;;;;4.20;3.80;;;20.60;99.90;;;;;;5054881;28;20186;-74
2021/09/12 10:51:59;;;;;;;5.07;4.33;;;20.50;99.90;;;;;;5054272;28;20491;-72
2021/09/12 10:54:24;;;;;;;5.10;3.67;;;20.60;99.90;;;;;;5051415;28;20266;-73
2021/09/12 10:57:08;;;;;;;3.90;3.60;;;20.80;99.90;;;;;;5051500;28;20190;-71
2021/09/12 10:59:34;;;;;;;5.63;3.90;;;20.80;99.90;;;;;;5038851;28;20503;-71
2021/09/12 11:02:00;;;;;;;4.80;4.30;;;20.80;99.90;;;;;;5054332;28;20488;-73
2021/09/12 11:04:32;;;;;;;6.50;5.30;;;20.80;99.90;;;;;;5056962;28;20902;-73
2021/09/12 11:07:02;;;;;;;6.40;5.80;;;20.80;99.90;;;;;;5053652;28;20233;-73
2021/09/12 11:09:28;;;;;;;6.00;5.40;;;20.70;99.90;;;;;;5053250;28;20427;-73
2021/09/12 11:12:03;;;;;;;8.53;5.30;;;20.60;99.90;;;;;;5055447;28;20473;-73
2021/09/12 11:14:30;;;;;;;5.50;4.30;;;20.40;99.90;;;;;;5055805;28;20815;-72
2021/09/12 11:17:10;;;;;;;5.47;4.70;;;20.20;99.90;;;;;;5056006;28;20174;-72
2021/09/12 11:19:37;;;;;;;4.73;3.90;;;20.20;99.90;;;;;;5052632;28;20473;-73
2021/09/12 11:22:03;;;;;;;4.30;3.90;;;20.40;99.90;;;;;;5053032;28;20452;-71
2021/09/12 11:24:29;;;;;;;4.23;3.80;;;20.50;99.90;;;;;;5053854;28;20415;-73
2021/09/12 11:27:00;;;;;;;4.80;4.23;;;20.50;99.90;;;;;;5053652;28;20409;-73
2021/09/12 11:29:34;;;;;;;4.40;4.00;;;20.70;99.90;;;;;;5052057;28;20269;-73
2021/09/12 11:32:08;;;;;;;6.53;3.80;;;20.80;99.90;;;;;;5052863;28;20445;-73
2021/09/12 11:34:35;;;;;;;4.90;4.60;;;21.00;99.90;;;;;;5041823;28;20421;-71
2021/09/12 11:37:08;;;;;;;5.00;4.50;;;21.00;99.50;;;;;;5051256;28;20418;-72
2021/09/12 11:39:37;;;;;;;4.83;3.83;;;21.00;99.20;;;;;;5052153;28;20414;-72
2021/09/12 11:42:05;;;;;;;4.40;3.90;;;21.00;99.50;;;;;;5045104;28;20440;-72
2021/09/12 11:44:31;;;;;;;4.17;3.73;;;21.10;99.70;;;;;;5056797;28;20719;-73
2021/09/12 11:46:58;;;;;;;4.00;3.50;;;21.20;98.90;;;;;;5056632;28;20459;-73
2021/09/12 11:49:23;;;;;;;4.00;3.57;;;21.10;98.70;;;;;;5056587;28;20412;-73
2021/09/12 11:51:49;;;;;;;6.27;4.40;;;21.20;98.60;;;;;;5055190;28;20474;-73
2021/09/12 11:54:24;;;;;;;4.90;4.03;;;21.30;98.20;;;;;;5051204;28;20198;-72
2021/09/12 11:57:10;;;;;;;4.23;3.90;;;21.30;98.40;;;;;;5035183;28;20409;-72
2021/09/12 11:59:40;;;;;;;4.40;4.00;;;21.60;98.60;;;;;;5035315;28;20459;-72
2021/09/12 12:02:12;;;;;;;4.43;3.97;;;21.50;97.40;;;;;;5036433;28;20500;-72
2021/09/12 12:04:39;;;;;;;5.03;4.43;;;21.40;97.80;;;;;;5035084;28;20440;-74
2021/09/12 12:07:05;;;;;;;4.20;3.90;;;21.40;98.00;;;;;;5033845;28;20505;-72
2021/09/12 12:09:56;;;;;;;4.37;4.07;;;21.40;97.90;;;;;;5034157;28;20488;-72
2021/09/12 12:12:22;;;;;;;4.70;4.20;;;21.40;97.90;;;;;;5035718;28;20317;-73
2021/09/12 12:15:01;;;;;;;4.63;4.20;;;21.30;98.00;;;;;;5036299;28;20415;-73
2021/09/12 12:17:27;;;;;;;4.93;4.50;;;21.40;98.50;;;;;;5035666;28;20163;-73
2021/09/12 12:19:55;;;;;;;5.33;4.83;;;21.20;98.10;;;;;;5037105;28;20944;-73
2021/09/12 12:22:23;;;;;;;4.27;3.97;;;21.20;98.20;;;;;;5037457;28;20441;-73
2021/09/12 12:24:54;;;;;;;4.80;4.30;;;21.20;98.40;;;;;;5036810;28;20763;-73
2021/09/12 12:27:21;;;;;;;3.87;3.57;;;21.20;97.70;;;;;;5035539;28;20428;-73
2021/09/12 12:29:59;;;;;;;4.67;4.27;;;21.20;97.30;;;;;;5037015;28;20402;-73
2021/09/12 12:32:26;;;;;;;5.23;4.83;;;21.20;97.30;;;;;;5037844;28;20454;-72
2021/09/12 12:34:55;;;;;;;5.03;4.17;;;21.10;96.00;;;;;;5036660;28;20516;-73